Terminal Aerodrome Forecast
Issued by NWS Grand Forks, ND

Home | Current Version | Previous Version | Text Only | Print | Product List | Glossary On
Versions: 1 2 3 4 5 6 7 8 9 10 11 12 13 14 15 16 17 18 19 20
439
FTUS43 KFGF 140843 AAA
TAFFAR
TAF AMD
KFAR 140843Z 1409/1506 15017G25KT P6SM -SN OVC015
      TEMPO 1409/1410 2SM -SN
     FM141000 17017G27KT 2SM -SN OVC015
      TEMPO 1410/1412 1/2SM SN
     FM141500 17018KT 3SM -SN OVC015
     FM142100 17008KT P6SM OVC015=

USA.gov is the U.S. government's official web portal to all federal, state and local government web resources and services.